This is the latest recevied weather packets stored in our database for station/object DC1NF-7. If no packets are shown the sender has not sent any weather packets the latest 10 day(s).
| Time | Temp. | Humidity | Pressure | Rain* | Wind** | Luminosity | Snow |
|---|---|---|---|---|---|---|---|
| 1777988151 | 23.33° C | 47% | 1005.9 hPa | 0 mm | - | 197 W/m² | - |
| 1777987545 | 23.33° C | 47% | 1005.9 hPa | 0 mm | - | 221 W/m² | - |
| 1777986942 | 23.89° C | 42% | 1006.1 hPa | 0 mm | - | 326 W/m² | - |
| 1777986338 | 24.44° C | 42% | 1006.1 hPa | 0 mm | - | 679 W/m² | - |
| 1777985737 | 25° C | 41% | 1006.4 hPa | 0 mm | - | 625 W/m² | - |
| 1777985130 | 24.44° C | 40% | 1006.4 hPa | 0 mm | - | 810 W/m² | - |
| 1777984527 | 25.56° C | 39% | 1006.5 hPa | 0 mm | - | 576 W/m² | - |
| 1777983923 | 23.89° C | 42% | 1006.6 hPa | 0 mm | - | 479 W/m² | - |
| 1777983320 | 23.89° C | 41% | 1006.8 hPa | 0 mm | - | 408 W/m² | - |
| 1777982720 | 23.89° C | 42% | 1006.8 hPa | 0 mm | - | 422 W/m² | - |
| 1777982175 | 23.33° C | 43% | 1006.9 hPa | 0 mm | - | 722 W/m² | - |
| 1777981571 | 23.89° C | 45% | 1007 hPa | 0 mm | - | 402 W/m² | - |
| 1777980967 | 25° C | 40% | 1007.1 hPa | 0 mm | - | 971 W/m² | - |
| 1777980366 | 23.33° C | 44% | 1007.2 hPa | 0 mm | - | 983 W/m² | - |
| 1777979762 | 22.78° C | 45% | 1007.3 hPa | 0 mm | - | 806 W/m² | - |
| 1777979164 | 23.89° C | 45% | 1007.3 hPa | 0 mm | - | 758 W/m² | - |
| 1777978555 | 22.22° C | 47% | 1007.5 hPa | 0 mm | - | 507 W/m² | - |
| 1777977949 | 22.22° C | 49% | 1007.6 hPa | 0 mm | - | 446 W/m² | - |
| 1777977345 | 23.33° C | 46% | 1007.6 hPa | 0 mm | - | 609 W/m² | - |
| 1777976741 | 22.22° C | 47% | 1007.7 hPa | 0 mm | - | 837 W/m² | - |
| 1777976140 | 22.22° C | 49% | 1007.8 hPa | 0 mm | - | 780 W/m² | - |
| 1777975535 | 22.22° C | 52% | 1007.9 hPa | 0 mm | - | 664 W/m² | - |
| 1777974928 | 21.67° C | 53% | 1007.9 hPa | 0 mm | - | 837 W/m² | - |
| 1777974324 | 21.11° C | 55% | 1008.1 hPa | 0 mm | - | 655 W/m² | - |
| 1777973720 | 21.67° C | 55% | 1008.1 hPa | 0 mm | - | 760 W/m² | - |
* Rain latest hour (hover to see other rain measurements)
** Current wind speed in m/s (hover to see current wind gust speed)